Time;durP1;ratioP1;P1;durP2;ratioP2;P2;SDS_P1;SDS_P2;PMS_P1;PMS_P2;Temp;Humidity;BMP_temperature;BMP_pressure;BME280_temperature;BME280_humidity;BME280_pressure;Samples;Min_cycle;Max_cycle;Signal;HPM_P1;HPM_P2
2022/08/09 00:01:37;;;;;;;14.95;2.17;;;;;;;46.75;19.27;100772.53;5092847;28;20048;-62
2022/08/09 00:04:06;;;;;;;32.13;2.95;;;;;;;46.40;19.21;100766.34;5092850;28;20390;-62
2022/08/09 00:06:32;;;;;;;9.88;1.95;;;;;;;46.68;19.49;100773.03;5093105;28;20036;-62
2022/08/09 00:08:59;;;;;;;28.48;2.70;;;;;;;46.32;19.64;100761.03;5091612;28;20076;-62
2022/08/09 00:11:26;;;;;;;17.13;2.00;;;;;;;47.24;19.02;100758.91;5091340;28;20102;-62
2022/08/09 00:13:53;;;;;;;27.52;2.80;;;;;;;50.40;16.12;100750.00;5091242;28;20020;-61
2022/08/09 00:16:20;;;;;;;18.70;2.42;;;;;;;50.65;15.49;100759.44;5091694;28;20028;-61
2022/08/09 00:18:48;;;;;;;9.85;1.83;;;;;;;52.42;13.77;100765.06;5091100;28;20157;-61
2022/08/09 00:21:14;;;;;;;734.63;40.30;;;;;;;50.32;16.68;100761.38;5091348;28;20085;-61
2022/08/09 00:23:41;;;;;;;5.07;1.58;;;;;;;47.49;18.61;100769.41;5090170;28;20024;-61
2022/08/09 00:26:09;;;;;;;8.10;1.85;;;;;;;47.23;20.13;100768.84;5094354;28;20391;-62
2022/08/09 00:28:35;;;;;;;8.23;2.08;;;;;;;46.44;19.54;100770.56;5092226;28;20070;-62
2022/08/09 00:31:03;;;;;;;37.10;3.08;;;;;;;47.28;19.94;100765.19;5095536;28;20027;-62
2022/08/09 00:33:30;;;;;;;8.88;2.05;;;;;;;45.32;21.31;100772.44;5092310;28;20028;-62
2022/08/09 00:35:59;;;;;;;9.27;1.70;;;;;;;46.68;20.61;100758.63;5092576;28;20055;-62
2022/08/09 00:38:26;;;;;;;12.73;1.92;;;;;;;47.14;19.38;100751.81;5092658;28;20024;-62
2022/08/09 00:40:53;;;;;;;5.65;1.63;;;;;;;46.31;20.69;100758.69;5092432;28;20074;-61
2022/08/09 00:43:23;;;;;;;4.55;1.80;;;;;;;44.13;22.60;100753.34;5091152;28;20118;-62
2022/08/09 00:45:50;;;;;;;6.30;1.60;;;;;;;43.12;23.93;100752.31;5091968;28;20036;-61
2022/08/09 00:48:17;;;;;;;8.00;1.70;;;;;;;43.18;23.84;100751.63;5092143;28;20044;-62
2022/08/09 00:50:44;;;;;;;18.38;2.00;;;;;;;42.60;24.33;100756.66;5092469;28;20085;-62
2022/08/09 00:53:11;;;;;;;4.70;1.70;;;;;;;41.00;25.84;100747.88;5090688;28;20039;-61
2022/08/09 00:55:39;;;;;;;6.03;1.50;;;;;;;40.41;27.03;100738.59;5091606;28;20089;-62
2022/08/09 00:58:05;;;;;;;24.80;2.30;;;;;;;40.85;26.85;100752.63;5092046;28;20016;-61
2022/08/09 01:00:34;;;;;;;3.17;1.40;;;;;;;40.42;26.70;100745.88;5090319;28;20036;-61
2022/08/09 01:03:18;;;;;;;14.65;1.90;;;;;;;40.29;26.65;100750.84;5090811;28;20036;-61
2022/08/09 01:06:20;;;;;;;5.97;1.50;;;;;;;40.19;27.38;100760.63;5087898;28;20499;-60
2022/08/09 01:09:21;;;;;;;11.43;2.60;;;;;;;40.21;26.90;100754.44;5077105;28;20028;-61
2022/08/09 01:12:00;;;;;;;8.23;2.17;;;;;;;39.93;27.34;100762.06;5096835;28;20443;-61
2022/08/09 01:14:44;;;;;;;9.77;2.20;;;;;;;39.82;26.83;100771.03;5090349;28;20043;-62
2022/08/09 01:17:18;;;;;;;10.68;1.92;;;;;;;39.52;27.04;100762.00;5078504;28;20059;-61
2022/08/09 01:19:59;;;;;;;5.22;1.70;;;;;;;39.43;28.66;100772.47;5091476;28;20035;-61
2022/08/09 01:22:28;;;;;;;10.07;1.70;;;;;;;39.27;29.13;100788.47;5089742;28;20514;-61
2022/08/09 01:25:19;;;;;;;10.30;1.70;;;;;;;39.02;29.85;100799.94;5092252;28;20058;-62
2022/08/09 01:27:51;;;;;;;7.63;1.60;;;;;;;38.86;30.39;100800.09;5089902;28;20028;-62
2022/08/09 01:30:21;;;;;;;8.77;1.73;;;;;;;38.75;30.73;100811.81;5089226;28;20483;-61
2022/08/09 01:32:51;;;;;;;39.60;4.05;;;;;;;38.67;30.92;100825.47;5090567;28;20613;-61
2022/08/09 01:35:35;;;;;;;24.23;2.53;;;;;;;38.76;30.56;100836.13;5086009;28;20505;-59
2022/08/09 01:38:08;;;;;;;9.02;1.63;;;;;;;38.59;30.87;100838.25;5083163;28;20035;-60
2022/08/09 01:40:37;;;;;;;6.53;2.17;;;;;;;38.62;30.54;100862.94;5091264;28;20047;-59
2022/08/09 01:43:05;;;;;;;8.90;2.50;;;;;;;38.59;30.67;100878.03;5092489;28;20028;-60
2022/08/09 01:45:33;;;;;;;94.25;8.30;;;;;;;37.54;30.80;100886.41;5091454;28;20028;-60
2022/08/09 01:48:01;;;;;;;90.15;8.57;;;;;;;37.10;31.38;100876.59;5090069;28;20027;-59
2022/08/09 01:50:30;;;;;;;103.10;9.23;;;;;;;37.04;31.63;100895.38;5091398;28;20032;-59
2022/08/09 01:52:59;;;;;;;87.43;8.43;;;;;;;37.12;31.74;100930.78;5091078;28;20073;-59
2022/08/09 01:55:29;;;;;;;128.18;10.50;;;;;;;35.90;35.08;100960.88;5091307;28;20058;-60
2022/08/09 01:57:56;;;;;;;107.82;10.60;;;;;;;35.17;36.72;100952.44;5076807;28;20020;-60
2022/08/09 02:00:25;;;;;;;294.33;20.58;;;;;;;34.47;38.00;100961.50;5084253;28;20096;-60
2022/08/09 02:02:52;;;;;;;125.07;12.35;;;;;;;34.23;38.09;100971.84;5083172;28;20433;-60
2022/08/09 02:05:22;;;;;;;164.95;16.38;;;;;;;33.55;39.08;100978.16;5076423;28;20443;-60
2022/08/09 02:07:56;;;;;;;363.05;26.83;;;;;;;32.91;41.04;101003.94;5088584;28;20033;-60
2022/08/09 02:10:28;;;;;;;328.10;27.30;;;;;;;32.30;42.87;100989.31;5079000;28;20036;-60
2022/08/09 02:12:56;;;;;;;197.70;16.73;;;;;;;31.88;44.69;101009.06;5091721;28;20040;-60
2022/08/09 02:15:26;;;;;;;131.25;12.15;;;;;;;31.38;46.32;101026.69;5074628;28;20086;-60
2022/08/09 02:17:55;;;;;;;149.95;13.35;;;;;;;31.37;46.81;101015.88;5088013;28;20483;-60
2022/08/09 02:20:22;;;;;;;110.85;11.68;;;;;;;31.01;47.47;101024.19;5078919;28;20047;-59
2022/08/09 02:22:55;;;;;;;94.68;9.95;;;;;;;30.85;48.48;101021.75;5085220;28;20028;-59
2022/08/09 02:25:31;;;;;;;63.15;7.80;;;;;;;31.01;48.11;100989.72;5091928;28;20032;-60
2022/08/09 02:28:06;;;;;;;65.22;8.73;;;;;;;31.15;47.64;100995.34;5075672;28;20027;-60
2022/08/09 02:30:44;;;;;;;53.95;7.32;;;;;;;31.09;48.58;100997.75;5091484;28;20474;-59
2022/08/09 02:33:17;;;;;;;30.05;4.82;;;;;;;30.48;51.12;101002.31;5079195;28;20036;-59
2022/08/09 02:35:46;;;;;;;22.48;4.38;;;;;;;30.66;50.44;100985.59;5091878;28;20509;-59
2022/08/09 02:38:18;;;;;;;27.63;4.00;;;;;;;30.98;49.40;100977.28;5081171;28;20093;-59
2022/08/09 02:40:47;;;;;;;23.90;3.63;;;;;;;31.32;48.46;100963.72;5084376;28;20116;-59
2022/08/09 02:43:15;;;;;;;16.80;2.75;;;;;;;31.59;47.02;100966.91;5089431;28;20704;-59
2022/08/09 02:45:44;;;;;;;13.93;3.20;;;;;;;31.57;46.61;100967.31;5078404;28;20104;-59
2022/08/09 02:48:15;;;;;;;16.98;3.28;;;;;;;31.38;47.31;100959.28;5089164;28;20407;-60
2022/08/09 02:50:54;;;;;;;19.80;2.97;;;;;;;31.21;47.97;100982.53;5093604;28;20136;-59
2022/08/09 02:53:36;;;;;;;11.20;2.67;;;;;;;30.92;48.35;100965.66;5089643;28;20032;-60
2022/08/09 02:56:05;;;;;;;15.23;3.90;;;;;;;30.86;48.69;100970.03;5079329;28;20020;-59
2022/08/09 02:58:33;;;;;;;12.20;3.38;;;;;;;30.70;49.00;100957.53;5094289;28;20028;-59
2022/08/09 03:01:02;;;;;;;14.88;4.53;;;;;;;30.73;49.17;100959.59;5082503;28;20048;-59
2022/08/09 03:03:31;;;;;;;12.45;3.55;;;;;;;30.70;49.32;100961.16;5092013;28;20078;-60
2022/08/09 03:06:00;;;;;;;20.40;4.13;;;;;;;30.75;49.61;100972.00;5090643;28;20039;-60
2022/08/09 03:08:28;;;;;;;9.35;2.80;;;;;;;30.80;49.05;100971.63;5084219;28;20035;-60
2022/08/09 03:10:56;;;;;;;17.80;3.60;;;;;;;30.84;49.29;100964.00;5094302;28;20028;-59
2022/08/09 03:13:25;;;;;;;11.93;3.20;;;;;;;30.94;48.95;100959.63;5092207;28;20027;-58
2022/08/09 03:15:52;;;;;;;12.45;2.75;;;;;;;31.00;49.28;100965.66;5093412;28;20036;-59
2022/08/09 03:18:19;;;;;;;9.40;2.58;;;;;;;31.04;48.95;100960.84;5093882;28;20028;-60
2022/08/09 03:20:47;;;;;;;16.30;4.20;;;;;;;31.07;48.62;100960.06;5096361;28;20024;-59
2022/08/09 03:23:17;;;;;;;19.00;16.70;;;;;;;31.21;47.48;100948.84;5095322;28;20032;-59
2022/08/09 03:25:45;;;;;;;14.52;7.60;;;;;;;31.36;47.01;100942.03;5093545;28;20072;-60
2022/08/09 03:28:12;;;;;;;7.82;2.97;;;;;;;31.44;46.49;100928.81;5094008;28;20032;-61
2022/08/09 03:30:39;;;;;;;10.05;2.50;;;;;;;31.50;46.14;100928.00;5094016;28;20051;-61
2022/08/09 03:33:08;;;;;;;15.70;4.38;;;;;;;31.55;45.91;100932.38;5093183;28;20466;-61
2022/08/09 03:35:36;;;;;;;14.40;7.70;;;;;;;31.52;45.40;100925.56;5093274;28;20040;-60
2022/08/09 03:38:03;;;;;;;9.32;2.55;;;;;;;31.51;45.43;100940.84;5093799;28;20028;-61
2022/08/09 03:40:29;;;;;;;13.13;2.80;;;;;;;31.62;45.90;100962.50;5093203;28;20363;-60
2022/08/09 03:42:56;;;;;;;11.13;2.70;;;;;;;31.74;45.84;100964.91;5082395;28;20037;-60
2022/08/09 03:45:22;;;;;;;9.52;2.67;;;;;;;31.59;46.41;100941.63;5073799;28;20021;-60
2022/08/09 03:47:49;;;;;;;9.52;2.42;;;;;;;31.51;46.68;100949.25;5089510;28;20162;-60
2022/08/09 03:50:18;;;;;;;10.32;2.75;;;;;;;31.53;47.02;100954.47;5088480;28;20035;-60
2022/08/09 03:52:44;;;;;;;15.68;3.22;;;;;;;31.47;46.98;100958.91;5080407;28;20028;-60
2022/08/09 03:55:13;;;;;;;15.85;4.18;;;;;;;31.45;47.11;100964.13;5099661;28;20047;-60
2022/08/09 03:57:40;;;;;;;14.40;3.35;;;;;;;31.39;47.69;100976.94;5092165;28;20031;-59
2022/08/09 04:00:08;;;;;;;19.85;3.63;;;;;;;31.23;47.85;100978.13;5092184;28;20047;-60
2022/08/09 04:02:45;;;;;;;17.63;3.28;;;;;;;31.20;48.57;100978.13;5093220;28;20028;-59
2022/08/09 04:05:12;;;;;;;21.35;3.20;;;;;;;31.23;48.40;100991.38;5091370;28;20032;-60
2022/08/09 04:07:38;;;;;;;17.45;3.05;;;;;;;31.21;48.41;100988.16;5092724;28;20436;-60
2022/08/09 04:10:06;;;;;;;12.30;2.80;;;;;;;31.20;48.32;100992.19;5088690;28;20081;-59
2022/08/09 04:12:42;;;;;;;11.93;3.00;;;;;;;31.15;47.71;101001.78;5092410;28;20419;-59
2022/08/09 04:15:09;;;;;;;10.15;2.40;;;;;;;31.09;47.95;101002.56;5090812;28;20161;-60
2022/08/09 04:17:35;;;;;;;11.15;2.38;;;;;;;31.09;47.77;101009.00;5092548;28;20066;-60
2022/08/09 04:20:03;;;;;;;12.40;2.38;;;;;;;31.00;48.09;101013.38;5092043;28;20032;-59
2022/08/09 04:22:30;;;;;;;10.73;2.72;;;;;;;30.98;48.16;101008.16;5092325;28;20393;-59
2022/08/09 04:24:56;;;;;;;10.15;2.72;;;;;;;30.95;47.83;101014.56;5094404;28;20115;-59
2022/08/09 04:27:23;;;;;;;38.65;4.07;;;;;;;30.91;47.81;101008.16;5091936;28;20032;-60
2022/08/09 04:29:50;;;;;;;22.35;2.88;;;;;;;31.08;47.63;101013.00;5092018;28;20055;-60
2022/08/09 04:32:17;;;;;;;16.50;2.75;;;;;;;31.12;47.19;101013.81;5097697;28;20028;-60
2022/08/09 04:34:43;;;;;;;12.35;2.70;;;;;;;31.15;46.92;101020.63;5091108;28;20125;-60
2022/08/09 04:37:10;;;;;;;10.55;2.40;;;;;;;31.19;46.82;101021.47;5091944;28;20024;-60
2022/08/09 04:39:37;;;;;;;11.10;2.50;;;;;;;31.23;47.36;101030.69;5092834;28;20506;-60
2022/08/09 04:42:04;;;;;;;13.18;2.42;;;;;;;31.27;46.61;101037.94;5088292;28;20021;-59
2022/08/09 04:44:31;;;;;;;13.15;2.40;;;;;;;31.23;46.82;101036.31;5073444;28;20110;-60
2022/08/09 04:46:58;;;;;;;11.75;2.78;;;;;;;31.25;46.21;101045.97;5073427;28;20145;-60
2022/08/09 04:49:31;;;;;;;9.00;2.40;;;;;;;31.32;46.16;101039.53;5073339;28;20033;-60
2022/08/09 04:51:58;;;;;;;5.65;2.03;;;;;;;31.27;46.22;101040.75;5088851;28;20528;-60
2022/08/09 04:54:25;;;;;;;12.73;2.25;;;;;;;31.23;46.49;101047.53;5091577;28;20040;-60
2022/08/09 04:56:51;;;;;;;9.38;2.05;;;;;;;31.25;46.53;101039.53;5091026;28;20024;-59
2022/08/09 04:59:18;;;;;;;10.35;2.47;;;;;;;31.33;46.00;101043.97;5091679;28;20059;-60
2022/08/09 05:01:44;;;;;;;13.10;2.33;;;;;;;31.34;46.71;101053.19;5090929;28;20060;-59
2022/08/09 05:04:11;;;;;;;6.72;2.40;;;;;;;31.31;47.28;101057.59;5092013;28;20111;-60
2022/08/09 05:06:38;;;;;;;17.95;2.97;;;;;;;31.27;46.91;101066.03;5092016;28;20016;-60
2022/08/09 05:09:05;;;;;;;12.00;2.72;;;;;;;31.24;46.93;101060.41;5090573;28;20129;-57
2022/08/09 05:11:31;;;;;;;10.80;2.33;;;;;;;31.36;46.53;101081.69;5092566;28;20020;-58
2022/08/09 05:13:58;;;;;;;16.35;2.75;;;;;;;31.27;47.01;101062.41;5092082;28;20032;-61
2022/08/09 05:16:25;;;;;;;14.43;3.08;;;;;;;31.39;47.14;101084.50;5090807;28;20431;-59
2022/08/09 05:18:51;;;;;;;10.35;3.17;;;;;;;31.41;46.35;101084.09;5093020;28;20059;-59
2022/08/09 05:21:18;;;;;;;8.65;2.83;;;;;;;31.44;46.01;101086.13;5090865;28;20394;-59
2022/08/09 05:23:45;;;;;;;34.22;4.00;;;;;;;31.46;47.16;101083.72;5090078;28;20043;-59
2022/08/09 05:26:11;;;;;;;18.00;3.50;;;;;;;31.53;46.87;101078.09;5077487;28;20032;-60
2022/08/09 05:28:38;;;;;;;16.55;2.97;;;;;;;31.52;46.06;101077.28;5090860;28;20036;-60
2022/08/09 05:31:05;;;;;;;14.93;2.97;;;;;;;31.58;45.91;101086.13;5091352;28;20038;-60
2022/08/09 05:33:32;;;;;;;17.58;3.90;;;;;;;31.64;46.51;101087.34;5091092;28;20101;-60
2022/08/09 05:35:58;;;;;;;15.90;3.70;;;;;;;31.72;46.30;101076.91;5078564;28;20500;-60
2022/08/09 05:38:25;;;;;;;12.90;3.58;;;;;;;31.75;46.45;101079.75;5092334;28;20596;-60
2022/08/09 05:40:51;;;;;;;14.48;4.53;;;;;;;31.73;46.79;101067.31;5091533;28;20090;-60
2022/08/09 05:43:19;;;;;;;16.73;4.68;;;;;;;31.75;46.86;101067.69;5094152;28;20115;-60
2022/08/09 05:45:46;;;;;;;17.60;5.50;;;;;;;31.72;47.17;101069.31;5090410;28;20437;-60
2022/08/09 05:48:13;;;;;;;12.23;3.95;;;;;;;31.66;48.14;101068.06;5090579;28;20039;-61
2022/08/09 05:50:43;;;;;;;19.75;6.10;;;;;;;31.56;48.35;101061.22;5091375;28;20441;-61
2022/08/09 05:53:10;;;;;;;16.70;2.95;;;;;;;31.52;48.29;101059.63;5086406;28;20059;-61
2022/08/09 05:55:37;;;;;;;13.40;4.07;;;;;;;31.45;48.57;101057.63;5092045;28;20024;-60
2022/08/09 05:58:04;;;;;;;15.52;3.88;;;;;;;31.44;48.67;101050.41;5087096;28;20035;-60
2022/08/09 06:00:31;;;;;;;17.20;4.35;;;;;;;31.49;48.50;101066.84;5079569;28;20043;-60
2022/08/09 06:02:59;;;;;;;24.02;5.70;;;;;;;31.49;47.86;101066.06;5086133;28;20048;-60
2022/08/09 06:05:27;;;;;;;17.27;4.80;;;;;;;31.51;48.51;101070.06;5087137;28;20032;-60
2022/08/09 06:07:54;;;;;;;22.80;5.68;;;;;;;31.52;47.44;101068.88;5094576;28;20020;-60
2022/08/09 06:10:36;;;;;;;23.13;4.25;;;;;;;31.45;48.12;101066.06;5095573;28;20523;-60
2022/08/09 06:13:11;;;;;;;13.68;3.30;;;;;;;31.45;48.15;101062.44;5094195;28;20112;-59
2022/08/09 06:15:38;;;;;;;13.13;3.80;;;;;;;31.50;47.70;101064.84;5094545;28;20063;-60
2022/08/09 06:18:05;;;;;;;14.45;3.90;;;;;;;31.56;47.96;101072.47;5095397;28;20023;-60
2022/08/09 06:20:32;;;;;;;21.23;4.03;;;;;;;31.58;47.27;101061.63;5086607;28;20032;-60
2022/08/09 06:22:59;;;;;;;17.52;3.25;;;;;;;31.55;47.44;101061.63;5093051;28;20111;-60
2022/08/09 06:25:25;;;;;;;14.52;3.55;;;;;;;31.47;47.45;101054.41;5095139;28;20101;-60
2022/08/09 06:27:52;;;;;;;11.18;3.28;;;;;;;31.45;47.43;101059.63;5095045;28;20024;-59
2022/08/09 06:30:19;;;;;;;19.60;3.42;;;;;;;31.42;47.61;101061.25;5088595;28;20126;-60
2022/08/09 06:32:46;;;;;;;11.50;3.25;;;;;;;31.37;47.64;101061.63;5077648;28;21396;-59
2022/08/09 06:35:13;;;;;;;13.43;2.75;;;;;;;31.17;48.48;101060.34;5080866;28;20028;-60
2022/08/09 06:37:39;;;;;;;7.35;2.22;;;;;;;31.01;48.58;101062.69;5093364;28;20028;-60
2022/08/09 06:40:06;;;;;;;13.60;2.58;;;;;;;30.93;48.65;101057.06;5083822;28;20028;-60
2022/08/09 06:42:33;;;;;;;10.68;3.08;;;;;;;30.92;48.59;101043.44;5094333;28;20020;-60
2022/08/09 06:45:00;;;;;;;8.82;2.63;;;;;;;30.95;48.29;101037.03;5096453;28;20024;-60
2022/08/09 06:47:26;;;;;;;10.88;2.97;;;;;;;30.82;48.54;101014.13;5079187;28;20382;-60
2022/08/09 06:49:53;;;;;;;12.18;3.03;;;;;;;30.89;49.12;101033.81;5093366;28;20040;-60
2022/08/09 06:52:20;;;;;;;6.95;2.65;;;;;;;30.85;48.93;101037.78;5093592;28;20016;-60
2022/08/09 06:54:47;;;;;;;11.20;3.05;;;;;;;30.76;48.89;101040.97;5094581;28;20032;-61
2022/08/09 06:57:13;;;;;;;11.23;2.70;;;;;;;30.68;49.17;101044.94;5092282;28;20482;-59
2022/08/09 06:59:41;;;;;;;10.40;3.20;;;;;;;30.57;49.19;101033.66;5092943;28;20029;-61
2022/08/09 07:02:07;;;;;;;8.48;2.10;;;;;;;30.58;49.55;101035.25;5094417;28;20039;-61
2022/08/09 07:04:34;;;;;;;10.02;2.88;;;;;;;30.57;49.53;101033.66;5093402;28;20496;-60
2022/08/09 07:07:02;;;;;;;11.77;2.90;;;;;;;30.63;49.21;101031.28;5093721;28;20599;-62
2022/08/09 07:09:29;;;;;;;9.48;3.33;;;;;;;30.61;49.35;101026.06;5093374;28;20028;-61
2022/08/09 07:11:55;;;;;;;11.40;4.18;;;;;;;30.55;48.97;101024.81;5076522;28;20354;-60
2022/08/09 07:14:22;;;;;;;11.52;3.25;;;;;;;30.49;49.52;101015.16;5086897;28;20471;-61
2022/08/09 07:16:49;;;;;;;7.22;2.78;;;;;;;30.41;50.25;101024.75;5084973;28;20478;-61
2022/08/09 07:19:16;;;;;;;13.82;3.42;;;;;;;30.33;50.44;101018.28;5078386;28;20037;-61
2022/08/09 07:21:44;;;;;;;10.25;3.33;;;;;;;30.49;49.66;101025.56;5090842;28;20016;-61
2022/08/09 07:24:11;;;;;;;14.57;3.28;;;;;;;30.54;49.33;101022.41;5091284;28;20444;-61
2022/08/09 07:26:37;;;;;;;16.13;3.40;;;;;;;30.64;49.03;101018.88;5092964;28;20024;-62
2022/08/09 07:29:04;;;;;;;12.65;3.53;;;;;;;30.61;49.09;101025.25;5081137;28;20028;-61
2022/08/09 07:31:31;;;;;;;14.57;3.53;;;;;;;30.61;49.17;101030.84;5090803;28;20024;-61
2022/08/09 07:33:58;;;;;;;17.92;4.20;;;;;;;30.69;49.07;101029.69;5078049;28;20530;-61
2022/08/09 07:36:24;;;;;;;13.57;3.05;;;;;;;30.76;48.78;101026.13;5086345;28;20047;-60
2022/08/09 07:38:51;;;;;;;10.60;2.50;;;;;;;30.79;48.06;101031.75;5085290;28;20032;-60
2022/08/09 07:41:18;;;;;;;7.78;2.45;;;;;;;30.68;48.41;101033.69;5079231;28;20025;-61
2022/08/09 07:43:45;;;;;;;9.98;2.70;;;;;;;30.67;48.72;101021.69;5090434;28;20067;-60
2022/08/09 07:46:11;;;;;;;10.23;2.55;;;;;;;30.73;48.49;101024.13;5079676;28;20057;-61
2022/08/09 07:48:38;;;;;;;14.55;3.15;;;;;;;30.66;48.40;101006.03;5084091;28;20040;-60
2022/08/09 07:51:05;;;;;;;9.25;2.40;;;;;;;30.68;48.44;101006.44;5087036;28;20059;-60
2022/08/09 07:53:32;;;;;;;9.10;3.30;;;;;;;30.60;48.46;101004.78;5087146;28;20500;-60
2022/08/09 07:55:59;;;;;;;12.13;3.28;;;;;;;30.50;48.85;101013.16;5093881;28;20516;-60
2022/08/09 07:58:25;;;;;;;15.30;3.40;;;;;;;30.44;48.98;101007.13;5085698;28;20020;-61
2022/08/09 08:00:52;;;;;;;14.65;3.60;;;;;;;30.53;48.84;101003.97;5085032;28;20452;-61
2022/08/09 08:03:19;;;;;;;16.08;3.50;;;;;;;30.41;49.31;101001.50;5078241;28;20044;-61
2022/08/09 08:05:46;;;;;;;13.30;3.85;;;;;;;30.40;49.27;101000.69;5090003;28;20394;-61
2022/08/09 08:08:13;;;;;;;14.75;3.63;;;;;;;30.35;49.37;101001.09;5079644;28;20016;-60
2022/08/09 08:10:40;;;;;;;17.48;3.65;;;;;;;30.29;49.56;101002.63;5082140;28;20395;-60
2022/08/09 08:13:07;;;;;;;12.15;3.60;;;;;;;30.25;49.70;101011.03;5087058;28;20484;-59
2022/08/09 08:15:33;;;;;;;14.77;3.10;;;;;;;30.29;49.47;101009.06;5076839;28;20029;-60
2022/08/09 08:18:00;;;;;;;17.65;4.18;;;;;;;30.36;48.91;101005.50;5088905;28;20052;-60
2022/08/09 08:20:29;;;;;;;9.55;3.30;;;;;;;30.27;49.54;101014.25;5096829;28;20146;-60
2022/08/09 08:22:56;;;;;;;14.13;3.40;;;;;;;30.17;49.72;101009.41;5093269;28;20237;-60
2022/08/09 08:25:25;;;;;;;13.60;3.35;;;;;;;30.12;50.06;101006.13;5100369;28;20093;-60
2022/08/09 08:27:51;;;;;;;16.45;3.45;;;;;;;30.09;50.13;101013.34;5093416;28;20027;-59
2022/08/09 08:30:18;;;;;;;21.30;3.75;;;;;;;30.06;50.23;101011.31;5085945;28;20102;-60
2022/08/09 08:32:45;;;;;;;12.70;3.25;;;;;;;30.01;50.15;101006.06;5089383;28;20032;-60
2022/08/09 08:35:12;;;;;;;8.00;3.10;;;;;;;29.97;50.38;101005.22;5093142;28;20105;-60
2022/08/09 08:37:39;;;;;;;13.27;3.30;;;;;;;29.99;50.49;101008.47;5076092;28;20036;-60
2022/08/09 08:40:06;;;;;;;11.05;3.10;;;;;;;30.00;50.25;101005.25;5087918;28;20505;-59
2022/08/09 08:42:33;;;;;;;13.77;2.88;;;;;;;30.01;50.16;101009.66;5083929;28;20036;-59
2022/08/09 08:45:01;;;;;;;11.93;3.38;;;;;;;30.02;50.28;101000.06;5080167;28;20028;-60
2022/08/09 08:47:29;;;;;;;14.43;3.10;;;;;;;30.01;50.50;101001.25;5089099;28;20105;-59
2022/08/09 08:49:58;;;;;;;11.93;2.65;;;;;;;30.03;50.52;100998.06;5076409;28;20031;-59
2022/08/09 08:52:27;;;;;;;8.38;2.50;;;;;;;29.98;50.10;100992.81;5086050;28;20040;-60
2022/08/09 08:54:55;;;;;;;18.25;2.80;;;;;;;29.94;50.21;100994.78;5092781;28;20093;-59
2022/08/09 08:57:23;;;;;;;7.03;2.17;;;;;;;29.92;49.91;100994.38;5092564;28;20046;-59
2022/08/09 08:59:51;;;;;;;10.98;2.42;;;;;;;29.88;49.79;101002.75;5075623;28;20024;-59
2022/08/09 09:02:25;;;;;;;42.58;4.05;;;;;;;29.89;49.22;101004.38;5085611;28;20032;-60
2022/08/09 09:04:54;;;;;;;13.07;2.38;;;;;;;29.94;48.64;101012.41;5084079;28;20043;-59
2022/08/09 09:07:22;;;;;;;19.27;3.03;;;;;;;29.94;48.26;101000.41;5076738;28;20458;-59
2022/08/09 09:09:51;;;;;;;25.58;2.97;;;;;;;29.90;48.65;101007.97;5089086;28;20048;-59
2022/08/09 09:12:20;;;;;;;6.80;1.98;;;;;;;29.87;48.40;100994.75;5085833;28;20024;-59
2022/08/09 09:14:48;;;;;;;9.27;2.05;;;;;;;29.88;48.88;101001.97;5092319;28;20532;-59
2022/08/09 09:17:15;;;;;;;6.25;1.80;;;;;;;29.84;48.00;101010.34;5077657;28;20497;-59
2022/08/09 09:19:43;;;;;;;10.75;2.15;;;;;;;29.87;48.07;101011.56;5098210;28;20035;-60
2022/08/09 09:22:13;;;;;;;9.85;2.40;;;;;;;29.91;48.31;101006.78;5092195;28;20050;-59
2022/08/09 09:24:43;;;;;;;13.43;2.45;;;;;;;29.93;48.72;100998.78;5091597;28;20050;-59
2022/08/09 09:27:13;;;;;;;11.48;2.40;;;;;;;29.99;48.40;101011.25;5092172;28;20031;-60
2022/08/09 09:29:42;;;;;;;5.35;2.00;;;;;;;29.99;48.82;101009.25;5075655;28;20098;-60
2022/08/09 09:32:10;;;;;;;6.53;1.90;;;;;;;30.00;48.86;101001.66;5086636;28;20116;-60
2022/08/09 09:34:38;;;;;;;9.85;2.10;;;;;;;30.01;48.87;101003.25;5081306;28;20040;-60
2022/08/09 09:37:06;;;;;;;6.50;2.10;;;;;;;30.04;48.96;101010.91;5077967;28;20033;-60
2022/08/09 09:39:33;;;;;;;8.82;2.20;;;;;;;30.07;48.98;101012.94;5088506;28;20542;-59
2022/08/09 09:42:04;;;;;;;9.70;2.47;;;;;;;30.09;49.02;101010.53;5081907;28;20478;-61
2022/08/09 09:44:32;;;;;;;17.27;2.53;;;;;;;30.09;48.93;101007.72;5096131;28;20090;-60
2022/08/09 09:47:08;;;;;;;6.72;2.10;;;;;;;30.07;48.74;101016.53;5083578;28;20028;-59
2022/08/09 09:49:38;;;;;;;8.02;1.90;;;;;;;30.05;48.61;101018.94;5092784;28;20047;-60
2022/08/09 09:52:08;;;;;;;10.27;2.25;;;;;;;30.05;48.31;101015.31;5080750;28;20027;-59
2022/08/09 09:54:41;;;;;;;5.63;2.05;;;;;;;30.05;49.25;101012.53;5085124;28;20494;-60
2022/08/09 09:57:15;;;;;;;6.35;1.80;;;;;;;30.04;49.04;101008.09;5094997;28;20032;-60
2022/08/09 09:59:42;;;;;;;8.80;2.50;;;;;;;30.02;49.18;101013.28;5079082;28;20129;-59
2022/08/09 10:02:10;;;;;;;7.60;2.10;;;;;;;30.00;49.27;101007.25;5090480;28;20024;-59
2022/08/09 10:04:38;;;;;;;11.88;2.70;;;;;;;29.95;49.74;101008.41;5084951;28;20036;-60
2022/08/09 10:07:19;;;;;;;16.85;2.75;;;;;;;29.96;49.31;101012.81;5082634;28;20074;-60
2022/08/09 10:09:48;;;;;;;9.57;2.50;;;;;;;29.93;48.93;101008.00;5092522;28;20036;-60
2022/08/09 10:12:24;;;;;;;11.75;2.70;;;;;;;29.97;49.49;101013.63;5082118;28;20060;-60
2022/08/09 10:15:14;;;;;;;11.55;3.00;;;;;;;30.01;48.98;101014.47;5084046;28;20090;-60
2022/08/09 10:17:44;;;;;;;12.07;3.00;;;;;;;30.03;49.30;101003.66;5092327;28;20474;-59
2022/08/09 10:20:20;;;;;;;13.27;3.05;;;;;;;30.04;49.69;100999.69;5081485;28;20039;-60
2022/08/09 10:22:52;;;;;;;12.75;3.67;;;;;;;30.05;50.25;100990.09;5090225;28;20032;-60
2022/08/09 10:25:20;;;;;;;19.60;4.50;;;;;;;30.22;50.35;100997.00;5095652;28;20414;-60
2022/08/09 10:27:47;;;;;;;20.13;5.30;;;;;;;30.22;50.54;100992.19;5093183;28;20035;-59
2022/08/09 10:30:13;;;;;;;26.85;5.90;;;;;;;30.23;50.80;100993.00;5081763;28;20046;-60
2022/08/09 10:32:40;;;;;;;19.60;6.00;;;;;;;30.19;50.81;100998.59;5085174;28;20029;-60
2022/08/09 10:35:11;;;;;;;21.80;5.95;;;;;;;30.21;50.74;101004.63;5087842;28;20032;-59
2022/08/09 10:37:38;;;;;;;30.30;6.25;;;;;;;30.15;50.84;100978.13;5078600;28;20509;-60
2022/08/09 10:40:06;;;;;;;23.63;5.72;;;;;;;30.26;50.28;101012.66;5090208;28;20032;-60
2022/08/09 10:42:33;;;;;;;30.42;6.82;;;;;;;30.20;51.05;101002.19;5083853;28;20032;-60
2022/08/09 10:45:07;;;;;;;31.20;6.40;;;;;;;30.11;51.02;100988.53;5082367;28;20482;-60
2022/08/09 10:47:48;;;;;;;24.45;6.65;;;;;;;30.12;51.50;101009.75;5091721;28;20063;-60
2022/08/09 10:50:27;;;;;;;38.92;7.30;;;;;;;30.07;51.47;101015.72;5081305;28;20060;-60
2022/08/09 10:53:05;;;;;;;33.30;7.25;;;;;;;30.09;51.32;101004.94;5089798;28;20089;-60
2022/08/09 10:55:33;;;;;;;35.05;7.47;;;;;;;29.99;51.55;101014.88;5095016;28;20474;-60
2022/08/09 10:58:01;;;;;;;34.80;7.80;;;;;;;29.90;51.48;101017.19;5090545;28;20032;-60
2022/08/09 11:00:37;;;;;;;36.53;7.53;;;;;;;29.81;51.65;101024.34;5082737;28;20050;-60
2022/08/09 11:03:19;;;;;;;34.65;7.18;;;;;;;29.88;51.77;101016.78;5081578;28;20036;-60
2022/08/09 11:06:24;;;;;;;37.53;7.68;;;;;;;29.97;51.35;101022.84;5091485;28;20051;-60
2022/08/09 11:08:51;;;;;;;34.45;8.07;;;;;;;29.88;51.54;101018.78;5086180;28;20036;-59
2022/08/09 11:11:19;;;;;;;43.00;8.35;;;;;;;29.78;51.89;101018.28;5079364;28;20090;-59
2022/08/09 11:13:46;;;;;;;33.58;7.85;;;;;;;29.74;51.85;101014.66;5091200;28;20085;-60
2022/08/09 11:16:31;;;;;;;44.97;8.38;;;;;;;29.71;52.60;101021.06;5080755;28;20107;-60
2022/08/09 11:18:59;;;;;;;32.58;8.23;;;;;;;29.66;52.61;101007.41;5082046;28;20116;-59
2022/08/09 11:21:51;;;;;;;34.50;8.23;;;;;;;29.71;52.56;101021.06;5090579;28;20024;-59
2022/08/09 11:24:18;;;;;;;43.45;8.90;;;;;;;29.65;52.85;101017.00;5092473;28;20024;-60
2022/08/09 11:26:47;;;;;;;34.22;8.50;;;;;;;29.52;52.94;101012.88;5094354;28;20024;-60
2022/08/09 11:29:50;;;;;;;35.47;8.95;;;;;;;29.47;53.09;101016.84;5079797;28;20064;-60